createdAt,value
2022-12-12T04:11:51.128Z,98200.34
2022-12-12T04:15:17.745Z,98203.28
2022-12-12T04:18:37.014Z,98205.75
2022-12-12T04:22:07.390Z,98208.41
2022-12-12T04:25:27.948Z,98205.00
2022-12-12T04:28:41.875Z,98211.44
2022-12-12T04:31:57.595Z,98210.31
2022-12-12T04:35:13.852Z,98218.03
2022-12-12T04:38:26.090Z,98222.00
2022-12-12T04:41:40.031Z,98218.22
2022-12-12T04:44:53.646Z,98221.63
2022-12-12T04:48:06.769Z,98229.38
2022-12-12T04:51:19.940Z,98230.81
2022-12-12T04:54:39.498Z,98232.94
2022-12-12T04:57:55.029Z,98228.13
2022-12-12T05:01:10.855Z,98232.28
2022-12-12T05:04:25.788Z,98236.75
2022-12-12T05:07:40.238Z,98232.28
2022-12-12T05:10:53.318Z,98230.81
2022-12-12T05:14:02.947Z,98245.22
2022-12-12T05:17:18.193Z,98241.22
2022-12-12T05:20:27.881Z,98248.09
2022-12-12T05:23:37.577Z,98244.16
2022-12-12T05:26:47.208Z,98257.50
2022-12-12T05:29:56.861Z,98257.31
2022-12-12T05:33:07.743Z,98260.19
2022-12-12T05:36:17.895Z,98257.81
2022-12-12T05:39:27.554Z,98264.72
2022-12-12T05:42:37.267Z,98262.78
2022-12-12T05:45:47.280Z,98260.97
2022-12-12T05:48:58.400Z,98260.06
2022-12-12T05:52:08.325Z,98266.19
2022-12-12T05:55:18.245Z,98258.63
2022-12-12T05:58:27.910Z,98261.31
2022-12-12T08:07:59.256Z,98339.97
2022-12-12T08:11:10.866Z,98347.00
2022-12-12T08:14:20.576Z,98349.09
2022-12-12T08:17:30.293Z,98357.34
2022-12-12T08:20:40.755Z,98351.16
2022-12-12T08:23:51.879Z,98354.94
2022-12-12T08:27:01.520Z,98360.22
2022-12-12T08:30:11.951Z,98362.09
2022-12-12T08:33:21.827Z,98358.06
2022-12-12T08:36:34.799Z,98366.38
2022-12-12T08:39:45.824Z,98367.94
2022-12-12T08:42:55.591Z,98372.34
2022-12-12T08:46:06.681Z,98365.75
2022-12-12T08:49:17.123Z,98365.75
2022-12-12T08:52:26.750Z,98368.00
2022-12-12T08:55:37.692Z,98368.66
2022-12-12T08:58:47.713Z,98368.66
2022-12-12T09:01:57.656Z,98371.47
2022-12-12T09:05:08.125Z,98376.16
2022-12-12T09:08:18.060Z,98377.81
2022-12-12T09:11:29.916Z,98378.84
2022-12-12T09:14:39.665Z,98374.69
2022-12-12T09:17:49.321Z,98383.97
2022-12-12T09:21:00.051Z,98387.56
2022-12-12T09:24:10.074Z,98388.03
2022-12-12T09:27:21.076Z,98389.47
2022-12-12T09:30:30.709Z,98391.59
2022-12-12T09:33:42.860Z,98392.72
2022-12-12T09:36:52.624Z,98393.50
2022-12-12T09:40:02.365Z,98393.88
2022-12-12T09:43:17.125Z,98392.38
2022-12-12T09:46:35.386Z,98378.41
2022-12-12T09:49:49.800Z,98376.53
2022-12-12T09:53:04.107Z,98379.94
2022-12-12T09:56:21.005Z,98378.53
2022-12-12T09:59:41.545Z,98379.47
2022-12-12T10:03:07.879Z,98371.41
2022-12-12T10:06:37.562Z,98374.13
2022-12-12T10:09:58.590Z,98375.03
2022-12-12T10:13:15.849Z,98377.13
2022-12-12T10:16:29.651Z,98372.22
2022-12-12T10:19:47.208Z,98372.69
2022-12-12T10:23:03.012Z,98371.09
2022-12-12T10:26:17.506Z,98377.25
2022-12-12T10:29:28.445Z,98375.50
2022-12-12T10:32:49.768Z,98373.53
2022-12-12T10:36:07.473Z,98368.94
2022-12-12T10:39:25.235Z,98376.66
2022-12-12T10:42:42.164Z,98374.00
2022-12-12T10:46:07.743Z,98370.91
2022-12-12T10:49:21.299Z,98371.91
2022-12-12T10:52:30.972Z,98374.63
2022-12-12T10:55:47.748Z,98373.44
2022-12-12T10:58:59.083Z,98374.63
2022-12-12T11:02:26.206Z,98367.19
2022-12-12T11:05:40.053Z,98365.72
2022-12-12T11:08:54.968Z,98369.59
2022-12-12T11:12:14.067Z,98370.47
2022-12-12T11:15:30.480Z,98368.38
2022-12-12T11:18:40.387Z,98375.19
2022-12-12T11:21:52.961Z,98372.06
2022-12-12T11:25:02.647Z,98371.34
2022-12-12T11:28:22.530Z,98366.41
2022-12-12T11:31:34.829Z,98367.13
2022-12-12T11:34:48.215Z,98359.84
2022-12-12T11:38:04.305Z,98363.88
2022-12-12T11:41:14.129Z,98363.66
2022-12-12T11:44:25.735Z,98370.28
2022-12-12T11:47:40.867Z,98371.59
2022-12-12T11:50:50.634Z,98366.75
2022-12-12T11:54:02.610Z,98360.53
2022-12-12T11:57:17.841Z,98361.31
2022-12-12T12:00:38.963Z,98358.50
2022-12-12T12:04:09.032Z,98353.75
2022-12-12T12:07:34.319Z,98344.34
2022-12-12T12:11:01.145Z,98339.72
2022-12-12T12:14:27.010Z,98344.03
2022-12-12T12:17:58.806Z,98345.28
2022-12-12T12:21:24.027Z,98336.94
2022-12-12T12:24:49.910Z,98336.63
2022-12-12T12:28:22.977Z,98336.94
2022-12-12T12:31:45.318Z,98331.72
2022-12-12T12:35:09.117Z,98336.78
2022-12-12T12:38:26.853Z,98329.94
2022-12-12T12:41:50.463Z,98330.22
2022-12-12T12:45:08.575Z,98330.22
2022-12-12T12:48:22.655Z,98327.53
2022-12-12T12:51:37.613Z,98322.47
2022-12-12T12:54:49.219Z,98320.38
2022-12-12T12:58:01.884Z,98316.81
2022-12-12T13:01:17.409Z,98315.59
2022-12-12T13:04:32.733Z,98317.38
2022-12-12T13:07:49.398Z,98311.28
2022-12-12T13:11:05.044Z,98312.34
2022-12-12T13:14:20.167Z,98312.34
2022-12-12T13:17:43.166Z,98315.31
2022-12-12T13:20:58.112Z,98314.56
2022-12-12T13:24:18.292Z,98310.84
2022-12-12T13:27:32.705Z,98322.16
2022-12-12T13:30:59.714Z,98321.44
2022-12-12T13:34:16.884Z,98321.41
2022-12-12T13:37:27.582Z,98320.66
2022-12-12T13:40:41.362Z,98323.91
2022-12-12T13:43:57.069Z,98313.78
2022-12-12T13:47:13.891Z,98320.03
2022-12-12T13:50:25.006Z,98309.28
2022-12-12T13:53:34.752Z,98309.63
2022-12-12T13:56:45.774Z,98312.59
2022-12-12T14:00:21.351Z,98299.63
2022-12-12T14:03:31.718Z,98304.19
2022-12-12T14:06:43.152Z,98299.06
2022-12-12T14:09:57.094Z,98303.50
2022-12-12T14:13:19.470Z,98305.22
2022-12-12T14:16:29.768Z,98318.88
2022-12-12T14:19:40.172Z,98314.56
2022-12-12T14:23:11.573Z,98311.19
2022-12-12T14:26:45.014Z,98314.47
2022-12-12T14:29:54.884Z,98303.69
2022-12-12T14:33:18.115Z,98316.63
2022-12-12T14:36:56.819Z,98319.63
2022-12-12T14:40:19.673Z,98317.31
2022-12-12T14:43:35.725Z,98312.97
2022-12-12T14:46:45.457Z,98318.09
2022-12-12T14:50:11.696Z,98319.97
2022-12-12T14:53:24.666Z,98324.00
2022-12-12T14:56:40.521Z,98326.38
2022-12-12T14:59:51.660Z,98326.63
2022-12-12T15:03:01.661Z,98327.94
2022-12-12T15:06:27.637Z,98334.94
2022-12-12T15:09:38.886Z,98344.16
2022-12-12T15:12:49.949Z,98338.03
2022-12-12T15:15:59.641Z,98340.09
2022-12-12T15:19:15.077Z,98340.47
2022-12-12T15:22:28.064Z,98335.13
2022-12-12T15:25:42.208Z,98331.75
2022-12-12T15:28:53.414Z,98332.00
2022-12-12T15:32:06.182Z,98322.00
2022-12-12T15:35:20.994Z,98327.13
2022-12-12T15:38:31.437Z,98322.53
2022-12-12T15:41:41.606Z,98319.75
2022-12-12T15:44:53.248Z,98320.56
2022-12-12T15:48:04.168Z,98321.34
2022-12-12T15:51:18.337Z,98322.88
2022-12-12T15:54:30.927Z,98324.06
2022-12-12T15:57:46.882Z,98334.94
2022-12-12T16:01:06.624Z,98337.16
2022-12-12T16:04:25.858Z,98339.41
2022-12-12T16:07:37.829Z,98339.84
2022-12-12T16:10:53.250Z,98350.03
2022-12-12T16:14:03.234Z,98352.22
2022-12-12T16:17:19.370Z,98358.03
2022-12-12T16:20:30.679Z,98364.38
2022-12-12T16:23:42.490Z,98369.63
2022-12-12T16:26:52.647Z,98361.88
2022-12-12T16:30:02.536Z,98363.13
2022-12-12T16:33:23.871Z,98362.22
2022-12-12T16:36:39.894Z,98363.31
2022-12-12T16:39:51.466Z,98359.94
2022-12-12T16:43:10.760Z,98374.00
2022-12-12T16:46:23.015Z,98372.41
2022-12-12T16:49:34.630Z,98377.28
2022-12-12T16:52:44.350Z,98366.88
2022-12-12T16:55:55.046Z,98370.47
2022-12-12T16:59:04.693Z,98366.88
2022-12-12T17:02:19.829Z,98372.63
2022-12-12T17:05:32.467Z,98369.78
2022-12-12T17:08:42.198Z,98369.78
2022-12-12T17:11:51.870Z,98369.09
2022-12-12T17:15:01.618Z,98377.00
2022-12-12T17:18:11.919Z,98377.69
2022-12-12T17:21:23.118Z,98386.50
2022-12-12T17:24:32.855Z,98387.19
2022-12-12T17:27:42.979Z,98390.09
2022-12-12T17:30:53.680Z,98394.19
2022-12-12T17:34:04.392Z,98382.00
2022-12-12T17:37:15.479Z,98389.53
2022-12-12T17:40:25.240Z,98385.94
2022-12-12T17:43:35.305Z,98383.03
2022-12-12T17:46:45.231Z,98386.66
2022-12-12T17:49:54.953Z,98389.53
2022-12-12T17:53:06.160Z,98377.66
2022-12-12T17:56:17.925Z,98382.00
2022-12-12T17:59:27.810Z,98377.84
2022-12-12T18:02:40.007Z,98377.31
2022-12-12T18:05:49.632Z,98383.34
2022-12-12T18:09:01.186Z,98375.75
2022-12-12T18:12:10.960Z,98380.75
2022-12-12T18:15:20.681Z,98381.56
2022-12-12T18:18:32.323Z,98383.16
2022-12-12T18:25:13.053Z,98385.81
2022-12-12T18:28:22.799Z,98378.50
2022-12-12T18:31:33.544Z,98369.53
2022-12-12T18:34:43.382Z,98375.31
2022-12-12T18:37:53.031Z,98380.13
2022-12-12T18:41:05.302Z,98379.53
2022-12-12T18:44:16.428Z,98376.59
2022-12-12T18:47:26.306Z,98381.25
2022-12-12T18:50:36.331Z,98387.28
2022-12-12T18:53:47.629Z,98384.69
2022-12-12T18:56:58.774Z,98392.44
2022-12-12T19:00:10.265Z,98394.22
2022-12-12T19:03:20.354Z,98396.00
2022-12-12T19:06:34.204Z,98397.03
2022-12-12T19:09:46.243Z,98398.88
2022-12-12T19:12:57.384Z,98395.63
2022-12-12T19:16:09.025Z,98390.88
2022-12-12T19:19:18.933Z,98394.31
2022-12-12T19:22:45.961Z,98391.75
2022-12-12T19:25:56.665Z,98406.31
2022-12-12T19:29:11.044Z,98397.97
2022-12-12T19:32:23.018Z,98407.03
2022-12-12T19:35:36.788Z,98401.03
2022-12-12T19:38:47.603Z,98396.38
2022-12-12T19:41:57.500Z,98397.44
2022-12-12T19:45:10.085Z,98397.44
2022-12-12T19:48:20.173Z,98394.34
2022-12-12T19:51:32.669Z,98396.28
2022-12-12T19:54:43.554Z,98402.00
2022-12-12T19:57:53.873Z,98404.13
2022-12-12T20:01:10.123Z,98405.47
2022-12-12T20:04:22.913Z,98410.72
2022-12-12T20:07:33.538Z,98401.72
2022-12-12T20:10:44.167Z,98413.53
2022-12-12T20:13:56.062Z,98419.75
2022-12-12T20:17:07.310Z,98410.06
2022-12-12T20:20:17.479Z,98406.97
2022-12-12T20:23:27.436Z,98410.97
2022-12-12T20:26:39.693Z,98413.75
2022-12-12T20:29:50.789Z,98413.75
2022-12-12T20:33:02.402Z,98414.16
2022-12-12T20:36:14.596Z,98408.06
2022-12-12T20:39:25.763Z,98409.47
2022-12-12T20:42:35.441Z,98404.38
2022-12-12T20:45:45.135Z,98406.28
2022-12-12T20:48:57.945Z,98399.22
2022-12-12T20:52:07.630Z,98396.94
2022-12-12T20:55:17.917Z,98391.22
2022-12-12T20:58:27.590Z,98390.69
2022-12-12T21:01:38.032Z,98383.25
2022-12-12T21:04:49.915Z,98385.28
2022-12-12T21:07:59.671Z,98384.34
2022-12-12T21:11:10.315Z,98387.53
2022-12-12T21:14:20.128Z,98384.09
2022-12-12T21:17:30.248Z,98380.69
2022-12-12T21:20:44.813Z,98381.44
2022-12-12T21:23:55.469Z,98382.75
2022-12-12T21:27:05.180Z,98381.63
2022-12-12T21:30:14.899Z,98378.28
2022-12-12T21:33:26.019Z,98381.38
2022-12-12T21:36:37.053Z,98373.41
2022-12-12T21:39:50.690Z,98379.44
2022-12-12T21:43:00.463Z,98378.25
2022-12-12T21:46:13.546Z,98375.25
2022-12-12T21:49:27.789Z,98374.38
2022-12-12T21:52:41.255Z,98374.28
2022-12-12T21:55:50.896Z,98375.03
2022-12-12T21:59:01.012Z,98376.06
2022-12-12T22:02:13.635Z,98374.75
2022-12-12T22:05:23.880Z,98371.69
2022-12-12T22:08:34.830Z,98369.06
2022-12-12T22:11:49.256Z,98367.28
2022-12-12T22:15:01.994Z,98360.97
2022-12-12T22:18:11.693Z,98366.63
2022-12-12T22:21:22.822Z,98362.94
2022-12-12T22:24:33.884Z,98362.72
2022-12-12T22:27:43.612Z,98366.16
2022-12-12T22:30:53.413Z,98366.56
2022-12-12T22:34:05.147Z,98366.16
2022-12-12T22:37:14.924Z,98366.88
2022-12-12T22:40:25.868Z,98372.75
2022-12-12T22:43:36.404Z,98367.59
2022-12-12T22:46:47.695Z,98367.19
2022-12-12T22:49:57.413Z,98369.97
2022-12-12T22:53:07.044Z,98364.59
2022-12-12T22:56:18.474Z,98366.09
2022-12-12T22:59:28.156Z,98361.78
2022-12-12T23:02:38.031Z,98361.78
2022-12-12T23:05:47.828Z,98362.50
2022-12-12T23:08:59.162Z,98361.38
2022-12-12T23:12:10.182Z,98350.28
2022-12-12T23:15:20.013Z,98348.22
2022-12-12T23:18:29.656Z,98352.88
2022-12-12T23:21:39.422Z,98345.53
2022-12-12T23:24:49.108Z,98352.34
2022-12-12T23:28:00.006Z,98356.53
